Time;durP1;ratioP1;P1;durP2;ratioP2;P2;SDS_P1;SDS_P2;PMS_P1;PMS_P2;Temp;Humidity;BMP_temperature;BMP_pressure;BME280_temperature;BME280_humidity;BME280_pressure;Samples;Min_cycle;Max_cycle;Signal;HPM_P1;HPM_P2
2023/07/24 00:01:18;;;;;;;11.55;6.55;;;17.40;99.90;;;;;;5092269;28;20040;-57
2023/07/24 00:03:44;;;;;;;9.15;6.45;;;17.40;99.90;;;;;;5091879;28;20111;-57
2023/07/24 00:06:10;;;;;;;8.35;6.07;;;17.30;99.90;;;;;;5091887;28;20032;-58
2023/07/24 00:08:35;;;;;;;9.65;6.35;;;17.30;99.90;;;;;;5091718;28;20401;-58
2023/07/24 00:11:04;;;;;;;8.95;5.60;;;17.30;99.90;;;;;;5091979;28;20039;-57
2023/07/24 00:13:30;;;;;;;8.25;5.45;;;17.20;99.90;;;;;;5092075;28;20241;-57
2023/07/24 00:15:56;;;;;;;9.88;5.80;;;17.30;99.90;;;;;;5091509;28;20390;-57
2023/07/24 00:18:22;;;;;;;10.85;6.03;;;17.20;99.90;;;;;;5091797;28;20036;-57
2023/07/24 00:20:48;;;;;;;11.85;5.82;;;17.20;99.90;;;;;;5091635;28;20040;-58
2023/07/24 00:23:13;;;;;;;8.68;5.70;;;17.20;99.90;;;;;;5091878;28;20106;-57
2023/07/24 00:25:39;;;;;;;9.80;5.45;;;17.20;99.90;;;;;;5091956;28;20485;-57
2023/07/24 00:28:05;;;;;;;9.40;4.97;;;17.20;99.90;;;;;;5091588;28;20043;-57
2023/07/24 00:30:30;;;;;;;10.20;5.88;;;17.10;99.90;;;;;;5091667;28;20047;-57
2023/07/24 00:32:56;;;;;;;11.20;6.22;;;17.10;99.90;;;;;;5091801;28;20043;-57
2023/07/24 00:35:22;;;;;;;10.50;5.85;;;17.10;99.90;;;;;;5091484;28;20032;-57
2023/07/24 00:37:47;;;;;;;10.98;6.00;;;17.10;99.90;;;;;;5091446;28;20375;-57
2023/07/24 00:40:13;;;;;;;7.80;5.45;;;17.10;99.90;;;;;;5091569;28;20035;-56
2023/07/24 00:42:38;;;;;;;12.73;6.07;;;17.00;99.90;;;;;;5091657;28;20032;-57
2023/07/24 00:45:04;;;;;;;9.45;5.72;;;17.00;99.90;;;;;;5094826;28;20028;-57
2023/07/24 00:47:30;;;;;;;10.35;5.70;;;16.90;99.90;;;;;;5110293;28;20497;-58
2023/07/24 00:49:56;;;;;;;8.80;5.70;;;16.90;99.90;;;;;;5111634;28;20075;-58
2023/07/24 00:52:22;;;;;;;15.27;6.68;;;16.90;99.90;;;;;;5111573;28;20035;-58
2023/07/24 00:54:48;;;;;;;9.50;6.00;;;16.90;99.90;;;;;;5111921;28;20093;-58
2023/07/24 00:57:14;;;;;;;17.60;7.57;;;16.80;99.90;;;;;;5111979;28;20092;-59
2023/07/24 00:59:42;;;;;;;9.02;6.22;;;16.90;99.90;;;;;;5112259;28;20079;-58
2023/07/24 01:02:08;;;;;;;9.38;6.15;;;16.80;99.90;;;;;;5114161;28;20039;-58
2023/07/24 01:04:34;;;;;;;14.63;6.30;;;16.80;99.90;;;;;;5115592;27;20500;-58
2023/07/24 01:07:00;;;;;;;12.50;6.50;;;16.80;99.90;;;;;;5115650;28;20039;-58
2023/07/24 01:09:25;;;;;;;11.07;6.65;;;16.80;99.90;;;;;;5115798;28;20470;-58
2023/07/24 01:12:15;;;;;;;13.38;6.38;;;16.80;99.90;;;;;;5115368;28;20040;-58
2023/07/24 01:15:00;;;;;;;17.85;6.60;;;16.70;99.90;;;;;;5115792;28;20090;-58
2023/07/24 01:17:29;;;;;;;11.60;6.22;;;16.70;99.90;;;;;;5106392;27;20040;-58
2023/07/24 01:19:57;;;;;;;10.90;6.88;;;16.80;99.90;;;;;;5115359;28;20052;-58
2023/07/24 01:22:29;;;;;;;15.07;7.15;;;16.70;99.90;;;;;;5087182;28;20052;-58
2023/07/24 01:25:13;;;;;;;14.35;7.55;;;16.70;99.90;;;;;;5114990;28;20097;-58
2023/07/24 01:27:45;;;;;;;11.43;7.63;;;16.70;99.90;;;;;;5089672;28;20036;-58
2023/07/24 01:30:12;;;;;;;11.07;7.72;;;16.60;99.90;;;;;;5114878;28;20081;-58
2023/07/24 01:32:38;;;;;;;14.30;8.10;;;16.60;99.90;;;;;;5115319;28;20035;-58
2023/07/24 01:35:04;;;;;;;11.38;7.93;;;16.60;99.90;;;;;;5115121;28;20443;-58
2023/07/24 01:37:31;;;;;;;13.23;8.05;;;16.50;99.90;;;;;;5114593;28;20071;-58
2023/07/24 01:39:57;;;;;;;12.88;8.02;;;16.50;99.90;;;;;;5114848;28;20093;-58
2023/07/24 01:42:24;;;;;;;14.45;8.75;;;16.50;99.90;;;;;;5114632;28;20517;-59
2023/07/24 01:44:56;;;;;;;11.38;7.90;;;16.50;99.90;;;;;;5114950;28;20043;-58
2023/07/24 01:47:22;;;;;;;9.57;7.88;;;16.50;99.90;;;;;;5113150;28;20473;-58
2023/07/24 01:49:48;;;;;;;11.90;8.38;;;16.40;99.90;;;;;;5114793;28;20081;-58
2023/07/24 01:52:14;;;;;;;13.13;8.35;;;16.40;99.90;;;;;;5113266;28;20039;-58
2023/07/24 01:54:39;;;;;;;12.45;7.70;;;16.40;99.90;;;;;;5114616;28;20080;-58
2023/07/24 01:57:05;;;;;;;13.27;9.73;;;16.40;99.90;;;;;;5114684;28;20036;-59
2023/07/24 01:59:31;;;;;;;13.55;9.43;;;16.40;99.90;;;;;;5114551;28;20043;-59
2023/07/24 02:01:56;;;;;;;12.45;9.82;;;16.40;99.90;;;;;;5114628;28;20397;-58
2023/07/24 02:04:22;;;;;;;12.48;9.20;;;16.40;99.90;;;;;;5114345;28;20128;-59
2023/07/24 02:06:51;;;;;;;14.13;9.68;;;16.50;99.90;;;;;;5114297;27;20088;-58
2023/07/24 02:09:18;;;;;;;14.48;10.57;;;16.40;99.90;;;;;;5113211;28;20472;-58
2023/07/24 02:11:44;;;;;;;12.77;10.65;;;16.40;99.90;;;;;;5113406;28;20047;-59
2023/07/24 02:14:13;;;;;;;17.80;11.98;;;16.60;99.90;;;;;;5114671;28;20172;-59
2023/07/24 02:16:39;;;;;;;15.27;10.25;;;16.50;99.90;;;;;;5114310;28;20039;-58
2023/07/24 02:19:05;;;;;;;12.65;11.05;;;16.50;99.90;;;;;;5114171;27;20042;-59
2023/07/24 02:21:32;;;;;;;13.85;11.18;;;16.70;99.90;;;;;;5114004;28;20212;-58
2023/07/24 02:23:57;;;;;;;17.80;11.50;;;16.60;99.90;;;;;;5113743;28;20051;-57
2023/07/24 02:26:23;;;;;;;12.18;10.82;;;16.70;99.90;;;;;;5114153;28;20035;-57
2023/07/24 02:28:49;;;;;;;13.35;11.13;;;16.60;99.90;;;;;;5113922;28;20032;-59
2023/07/24 02:31:15;;;;;;;18.45;10.35;;;16.60;99.90;;;;;;5113863;28;20504;-58
2023/07/24 02:33:40;;;;;;;16.20;11.40;;;16.70;99.90;;;;;;5113475;28;20039;-58
2023/07/24 02:36:06;;;;;;;15.32;10.45;;;16.70;99.90;;;;;;5113809;28;20046;-59
2023/07/24 02:38:31;;;;;;;13.90;11.70;;;16.60;99.90;;;;;;5113360;28;20044;-59
2023/07/24 02:40:57;;;;;;;13.80;10.70;;;16.60;99.90;;;;;;5113726;28;20039;-58
2023/07/24 02:43:23;;;;;;;15.02;11.40;;;16.50;99.90;;;;;;5113666;28;20035;-58
2023/07/24 02:45:48;;;;;;;13.65;11.32;;;16.50;99.90;;;;;;5113285;28;20057;-57
2023/07/24 02:48:14;;;;;;;15.50;11.73;;;16.50;99.90;;;;;;5113547;28;20046;-57
2023/07/24 02:50:40;;;;;;;13.15;10.52;;;16.60;99.90;;;;;;5113220;28;20461;-56
2023/07/24 02:53:05;;;;;;;13.77;11.07;;;16.60;99.90;;;;;;5113080;28;20554;-58
2023/07/24 02:55:31;;;;;;;14.05;11.27;;;16.50;99.90;;;;;;5113438;28;20550;-58
2023/07/24 02:57:57;;;;;;;19.70;11.63;;;16.50;99.90;;;;;;5113650;27;20074;-58
2023/07/24 03:00:22;;;;;;;13.55;10.85;;;16.70;99.90;;;;;;5113225;28;20075;-58
2023/07/24 03:02:48;;;;;;;12.38;10.00;;;16.60;99.90;;;;;;5113559;28;20032;-59
2023/07/24 03:05:13;;;;;;;22.02;11.45;;;16.70;99.90;;;;;;5113692;28;20035;-59
2023/07/24 03:07:39;;;;;;;13.98;11.60;;;16.70;99.90;;;;;;5113095;28;20384;-58
2023/07/24 03:10:05;;;;;;;14.95;11.02;;;16.80;99.90;;;;;;5113164;28;20055;-58
2023/07/24 03:12:31;;;;;;;15.50;10.68;;;16.70;99.90;;;;;;5113361;28;20114;-59
2023/07/24 03:14:56;;;;;;;14.73;9.90;;;16.70;99.90;;;;;;5111821;28;20450;-58
2023/07/24 03:17:22;;;;;;;15.40;9.50;;;16.70;99.90;;;;;;5113019;28;20036;-58
2023/07/24 03:19:49;;;;;;;12.32;9.80;;;16.70;99.90;;;;;;5112635;28;20104;-57
2023/07/24 03:22:15;;;;;;;11.35;8.98;;;16.90;99.90;;;;;;5112610;28;20083;-58
2023/07/24 03:24:40;;;;;;;14.15;8.73;;;16.90;99.90;;;;;;5112628;28;20071;-58
2023/07/24 03:27:06;;;;;;;11.48;8.70;;;16.80;99.90;;;;;;5112925;28;20077;-57
2023/07/24 03:29:32;;;;;;;11.57;9.20;;;16.90;99.90;;;;;;5112662;28;20044;-57
2023/07/24 03:31:58;;;;;;;11.00;8.05;;;17.00;99.90;;;;;;5112533;28;20059;-57
2023/07/24 03:34:23;;;;;;;14.38;8.70;;;16.80;99.90;;;;;;5112634;28;20447;-57
2023/07/24 03:36:49;;;;;;;11.63;8.15;;;16.90;99.90;;;;;;5112561;28;20093;-58
2023/07/24 03:39:15;;;;;;;12.63;8.95;;;17.00;99.90;;;;;;5112671;28;20555;-58
2023/07/24 03:41:42;;;;;;;12.70;8.45;;;17.00;99.90;;;;;;5111554;28;20044;-57
2023/07/24 03:44:08;;;;;;;14.00;8.15;;;17.00;99.90;;;;;;5113154;28;20375;-58
2023/07/24 03:46:34;;;;;;;15.63;9.13;;;17.00;99.90;;;;;;5112779;28;20044;-58
2023/07/24 03:49:00;;;;;;;13.82;8.65;;;17.00;99.90;;;;;;5111240;28;20055;-58
2023/07/24 03:51:25;;;;;;;10.50;8.52;;;17.00;99.90;;;;;;5111253;28;20377;-57
2023/07/24 03:53:51;;;;;;;14.55;8.85;;;17.00;99.90;;;;;;5111294;28;20120;-57
2023/07/24 03:56:17;;;;;;;12.77;8.85;;;17.00;99.90;;;;;;5111270;28;20048;-58
2023/07/24 03:58:42;;;;;;;10.20;7.97;;;17.00;99.90;;;;;;5112398;28;20460;-57
2023/07/24 04:01:08;;;;;;;10.18;7.88;;;16.90;99.90;;;;;;5112195;28;20096;-58
2023/07/24 04:03:35;;;;;;;10.93;8.20;;;17.00;99.90;;;;;;5112142;28;20027;-60
2023/07/24 04:06:00;;;;;;;9.55;7.82;;;16.90;99.90;;;;;;5111005;28;20075;-58
2023/07/24 04:08:26;;;;;;;9.68;7.57;;;17.00;99.90;;;;;;5112452;28;20063;-58
2023/07/24 04:10:52;;;;;;;13.02;8.02;;;17.10;99.90;;;;;;5111018;28;20036;-58
2023/07/24 04:13:18;;;;;;;12.55;8.27;;;17.10;99.90;;;;;;5111924;28;20067;-57
2023/07/24 04:15:44;;;;;;;13.05;8.23;;;17.00;99.90;;;;;;5112244;28;20039;-58
2023/07/24 04:18:10;;;;;;;10.60;8.18;;;17.00;99.90;;;;;;5111998;28;20452;-56
2023/07/24 04:20:36;;;;;;;12.05;8.40;;;17.00;99.90;;;;;;5112412;28;20161;-58
2023/07/24 04:23:02;;;;;;;10.48;8.50;;;17.10;99.90;;;;;;5111794;28;20047;-57
2023/07/24 04:25:27;;;;;;;11.52;8.57;;;17.00;99.90;;;;;;5112083;28;20032;-56
2023/07/24 04:27:53;;;;;;;9.63;8.30;;;17.00;99.90;;;;;;5112359;28;20036;-58
2023/07/24 04:30:19;;;;;;;11.30;8.93;;;17.00;99.90;;;;;;5110673;28;20044;-57
2023/07/24 04:32:45;;;;;;;10.20;7.80;;;17.10;99.90;;;;;;5112058;28;20042;-58
2023/07/24 04:35:11;;;;;;;12.15;8.82;;;17.10;99.90;;;;;;5113261;28;20036;-57
2023/07/24 04:37:37;;;;;;;10.98;8.48;;;17.00;99.90;;;;;;5116097;27;20031;-57
2023/07/24 04:40:03;;;;;;;11.75;8.57;;;17.00;99.90;;;;;;5115937;28;20061;-57
2023/07/24 04:42:29;;;;;;;12.88;9.77;;;17.10;99.90;;;;;;5116187;28;20143;-58
2023/07/24 04:44:54;;;;;;;12.68;9.43;;;17.00;99.90;;;;;;5115720;28;20038;-56
2023/07/24 04:47:20;;;;;;;11.93;8.77;;;17.00;99.90;;;;;;5115984;28;20088;-57
2023/07/24 04:49:46;;;;;;;11.00;9.10;;;17.00;99.90;;;;;;5115650;28;20071;-57
2023/07/24 04:52:11;;;;;;;12.02;9.73;;;17.10;99.90;;;;;;5115726;28;20497;-58
2023/07/24 04:54:37;;;;;;;10.85;9.38;;;17.00;99.90;;;;;;5115931;28;20047;-57
2023/07/24 04:57:03;;;;;;;13.50;10.20;;;17.00;99.90;;;;;;5115668;28;20039;-57
2023/07/24 04:59:28;;;;;;;12.93;9.80;;;17.00;99.90;;;;;;5115387;28;20481;-57
2023/07/24 05:01:54;;;;;;;12.00;9.32;;;17.20;99.90;;;;;;5115526;28;20464;-58
2023/07/24 05:04:20;;;;;;;11.38;9.70;;;17.10;99.90;;;;;;5115174;28;20485;-59
2023/07/24 05:06:45;;;;;;;12.82;10.65;;;17.10;99.90;;;;;;5115710;28;20047;-58
2023/07/24 05:09:11;;;;;;;14.00;10.15;;;17.00;99.90;;;;;;5115818;28;20538;-58
2023/07/24 05:11:36;;;;;;;12.68;9.80;;;17.20;99.90;;;;;;5115284;28;20458;-58
2023/07/24 05:14:02;;;;;;;11.27;9.85;;;17.20;99.90;;;;;;5115435;27;20031;-57
2023/07/24 05:16:28;;;;;;;15.20;9.73;;;17.20;99.90;;;;;;5115411;28;20120;-58
2023/07/24 05:18:53;;;;;;;12.00;10.10;;;17.20;99.90;;;;;;5115055;28;20043;-57
2023/07/24 05:21:19;;;;;;;12.77;10.52;;;17.10;99.90;;;;;;5114841;28;20050;-57
2023/07/24 05:23:44;;;;;;;10.80;9.57;;;17.10;99.90;;;;;;5114991;28;20054;-57
2023/07/24 05:26:10;;;;;;;16.25;10.60;;;17.10;99.90;;;;;;5114966;28;20151;-58
2023/07/24 05:28:36;;;;;;;12.38;10.25;;;17.20;99.90;;;;;;5115137;28;20035;-57
2023/07/24 05:31:02;;;;;;;10.80;9.70;;;17.30;99.90;;;;;;5115012;28;20055;-58
2023/07/24 05:33:29;;;;;;;14.93;10.35;;;17.20;99.90;;;;;;5115069;28;20039;-58
2023/07/24 05:36:02;;;;;;;12.63;9.45;;;17.20;99.90;;;;;;5114933;28;20046;-58
2023/07/24 05:38:29;;;;;;;12.63;10.20;;;17.30;99.90;;;;;;5113893;28;20039;-58
2023/07/24 05:40:59;;;;;;;13.00;10.10;;;17.30;99.90;;;;;;5114889;28;20037;-58
2023/07/24 05:43:26;;;;;;;14.95;10.07;;;17.30;99.90;;;;;;5115155;28;20118;-57
2023/07/24 05:45:52;;;;;;;10.52;8.95;;;17.40;99.90;;;;;;5114713;28;20032;-57
2023/07/24 05:48:17;;;;;;;12.27;9.55;;;17.40;99.90;;;;;;5114845;28;20035;-58
2023/07/24 05:50:43;;;;;;;13.85;10.20;;;17.50;99.90;;;;;;5114781;27;20461;-58
2023/07/24 05:53:09;;;;;;;11.52;9.65;;;17.40;99.90;;;;;;5114738;28;20035;-58
2023/07/24 05:55:34;;;;;;;12.98;10.13;;;17.40;99.90;;;;;;5114633;28;20105;-57
2023/07/24 05:58:00;;;;;;;12.63;9.93;;;17.50;99.90;;;;;;5114314;28;20074;-58
2023/07/24 06:00:26;;;;;;;13.65;9.77;;;17.50;99.90;;;;;;5114428;28;20039;-58
2023/07/24 06:02:52;;;;;;;13.63;10.45;;;17.40;99.90;;;;;;5114232;28;20485;-58
2023/07/24 06:05:19;;;;;;;12.82;9.40;;;17.40;99.90;;;;;;5114689;28;20044;-58
2023/07/24 06:07:45;;;;;;;13.15;9.68;;;17.40;99.90;;;;;;5114424;28;20451;-58
2023/07/24 06:10:11;;;;;;;11.43;9.55;;;17.40;99.90;;;;;;5114215;28;20040;-58
2023/07/24 06:12:37;;;;;;;11.77;9.68;;;17.40;99.90;;;;;;5114243;28;20047;-58
2023/07/24 06:15:03;;;;;;;11.73;9.85;;;17.30;99.90;;;;;;5114400;28;20031;-60
2023/07/24 06:17:29;;;;;;;15.55;9.68;;;17.40;99.90;;;;;;5114052;28;20115;-58
2023/07/24 06:19:54;;;;;;;15.15;9.02;;;17.50;99.90;;;;;;5114049;28;20119;-58
2023/07/24 06:22:20;;;;;;;16.13;9.35;;;17.50;99.90;;;;;;5114215;28;20047;-58
2023/07/24 06:24:46;;;;;;;13.98;9.95;;;17.50;99.90;;;;;;5112701;28;20480;-58
2023/07/24 06:27:11;;;;;;;12.68;8.85;;;17.60;99.90;;;;;;5114183;28;20032;-59
2023/07/24 06:29:37;;;;;;;11.82;9.02;;;17.60;99.90;;;;;;5113916;27;20047;-58
2023/07/24 06:32:03;;;;;;;15.38;10.68;;;17.60;99.90;;;;;;5113741;28;20047;-57
2023/07/24 06:34:28;;;;;;;12.43;9.00;;;17.70;99.90;;;;;;5114070;28;20036;-58
2023/07/24 06:36:54;;;;;;;15.05;8.93;;;17.60;99.90;;;;;;5113669;28;20046;-58
2023/07/24 06:39:20;;;;;;;12.45;9.15;;;17.60;99.90;;;;;;5113615;28;20048;-58
2023/07/24 06:41:46;;;;;;;12.32;8.18;;;17.80;99.90;;;;;;5113485;28;20040;-59
2023/07/24 06:44:11;;;;;;;14.05;8.98;;;17.70;99.90;;;;;;5112452;28;20473;-58
2023/07/24 06:46:37;;;;;;;11.88;9.20;;;17.80;99.90;;;;;;5113473;28;20096;-59
2023/07/24 06:49:03;;;;;;;11.85;8.63;;;17.80;99.90;;;;;;5113306;28;20489;-58
2023/07/24 06:51:29;;;;;;;13.07;8.82;;;17.80;99.90;;;;;;5113752;27;20118;-59
2023/07/24 06:53:54;;;;;;;12.52;8.68;;;17.90;99.90;;;;;;5113338;28;20046;-59
2023/07/24 06:56:20;;;;;;;13.65;9.00;;;17.90;99.90;;;;;;5113733;28;20074;-59
2023/07/24 06:58:46;;;;;;;11.57;8.68;;;17.90;99.90;;;;;;5112836;28;20478;-59
2023/07/24 07:01:11;;;;;;;13.20;9.50;;;17.90;99.90;;;;;;5113562;28;20031;-58
2023/07/24 07:03:37;;;;;;;13.48;9.07;;;17.90;99.90;;;;;;5104413;28;20045;-58
2023/07/24 07:06:03;;;;;;;14.65;9.57;;;17.90;99.90;;;;;;5113346;28;20409;-57
2023/07/24 07:08:30;;;;;;;14.82;9.65;;;18.00;99.90;;;;;;5103397;28;20031;-58
2023/07/24 07:10:59;;;;;;;13.48;9.20;;;18.00;99.90;;;;;;5113194;28;20040;-58
2023/07/24 07:13:26;;;;;;;14.48;9.07;;;18.00;99.90;;;;;;5113583;28;20035;-58
2023/07/24 07:15:51;;;;;;;16.85;9.00;;;18.10;99.90;;;;;;5113009;28;20553;-59
2023/07/24 07:18:17;;;;;;;10.10;9.07;;;18.00;99.90;;;;;;5113101;28;20043;-58
2023/07/24 07:20:46;;;;;;;16.73;9.70;;;18.20;99.90;;;;;;5112822;28;20454;-58
2023/07/24 07:23:12;;;;;;;13.73;9.95;;;18.10;99.90;;;;;;5098830;28;20434;-58
2023/07/24 07:25:38;;;;;;;13.52;9.20;;;18.20;99.90;;;;;;5113312;28;20115;-58
2023/07/24 07:28:04;;;;;;;13.02;8.73;;;18.20;99.90;;;;;;5112977;28;20036;-58
2023/07/24 07:30:29;;;;;;;12.52;8.80;;;18.20;99.90;;;;;;5112674;27;20035;-58
2023/07/24 07:32:55;;;;;;;18.35;9.35;;;18.20;99.90;;;;;;5112982;28;20053;-57
2023/07/24 07:35:20;;;;;;;15.60;9.15;;;18.30;99.90;;;;;;5112730;28;20042;-57
2023/07/24 07:37:46;;;;;;;17.45;8.82;;;18.30;99.90;;;;;;5112875;28;20031;-58
2023/07/24 07:40:12;;;;;;;21.00;10.25;;;18.30;99.90;;;;;;5112901;28;20035;-58
2023/07/24 07:42:37;;;;;;;15.07;10.18;;;18.40;99.90;;;;;;5112612;28;20039;-58
2023/07/24 07:45:04;;;;;;;13.93;9.00;;;18.30;99.90;;;;;;5112915;28;20032;-57
2023/07/24 07:47:29;;;;;;;17.83;9.18;;;18.40;99.90;;;;;;5112826;28;20032;-57
2023/07/24 07:49:55;;;;;;;16.02;10.27;;;18.50;99.90;;;;;;5112625;28;20374;-58
2023/07/24 07:52:21;;;;;;;17.08;9.68;;;18.50;99.90;;;;;;5105811;28;20040;-58
2023/07/24 07:54:48;;;;;;;13.40;9.07;;;18.50;99.90;;;;;;5112763;28;20040;-58
2023/07/24 07:57:14;;;;;;;21.20;9.93;;;18.60;99.90;;;;;;5103780;28;20413;-58
2023/07/24 07:59:40;;;;;;;28.63;9.77;;;18.70;99.90;;;;;;5110388;28;20046;-58
2023/07/24 08:02:06;;;;;;;17.42;9.23;;;18.70;99.90;;;;;;5112697;28;20035;-58
2023/07/24 08:04:32;;;;;;;14.00;7.95;;;18.80;99.90;;;;;;5112882;28;20478;-56
2023/07/24 08:06:58;;;;;;;16.77;9.48;;;18.80;99.90;;;;;;5112730;28;20036;-57
2023/07/24 08:09:24;;;;;;;14.98;8.93;;;18.80;99.90;;;;;;5112493;28;20082;-58
2023/07/24 08:11:51;;;;;;;12.63;8.63;;;18.90;99.90;;;;;;5132605;27;20039;-57
2023/07/24 08:14:19;;;;;;;15.90;9.27;;;18.80;99.90;;;;;;5116478;28;20038;-57
2023/07/24 08:16:48;;;;;;;13.48;8.25;;;18.90;99.90;;;;;;5116472;28;20035;-58
2023/07/24 08:19:14;;;;;;;;;;;18.90;99.90;;;;;;5117258;28;20453;-57
2023/07/24 08:21:40;;;;;;;16.20;7.60;;;19.00;99.90;;;;;;5116342;28;19916;-57
2023/07/24 08:24:06;;;;;;;15.32;8.98;;;19.00;99.90;;;;;;5116415;28;20108;-58
2023/07/24 08:26:32;;;;;;;15.57;8.75;;;19.00;99.90;;;;;;5115133;28;20040;-58
2023/07/24 08:28:57;;;;;;;16.05;8.73;;;19.10;99.90;;;;;;5116537;28;20044;-57
2023/07/24 08:31:23;;;;;;;12.40;7.80;;;19.00;99.90;;;;;;5116325;28;20561;-57
2023/07/24 08:33:49;;;;;;;13.38;7.95;;;19.00;99.90;;;;;;5116289;28;20044;-58
2023/07/24 08:36:15;;;;;;;17.90;9.20;;;19.00;99.90;;;;;;5116364;28;20047;-57
2023/07/24 08:38:42;;;;;;;16.35;9.13;;;19.00;99.90;;;;;;5114922;28;20047;-58
2023/07/24 08:41:10;;;;;;;23.35;8.68;;;19.00;99.90;;;;;;5115010;27;20055;-57
2023/07/24 08:43:38;;;;;;;19.38;9.25;;;19.00;99.90;;;;;;5116228;28;20035;-58
2023/07/24 08:46:05;;;;;;;18.65;8.90;;;19.00;99.90;;;;;;5116315;27;20040;-59
2023/07/24 08:48:35;;;;;;;15.10;9.10;;;19.00;99.90;;;;;;5115931;27;20035;-57
2023/07/24 08:51:06;;;;;;;17.30;8.90;;;19.00;99.90;;;;;;5115769;28;20598;-57
2023/07/24 08:53:36;;;;;;;19.95;9.45;;;19.00;99.90;;;;;;5110123;28;20054;-57
2023/07/24 08:56:03;;;;;;;15.40;8.02;;;19.10;99.90;;;;;;5115693;28;20039;-57
2023/07/24 08:58:29;;;;;;;16.95;7.93;;;19.10;99.90;;;;;;5115846;28;20044;-57
2023/07/24 09:00:57;;;;;;;16.27;9.23;;;19.20;99.90;;;;;;5115545;28;20478;-57
2023/07/24 09:03:23;;;;;;;20.53;9.47;;;19.20;99.90;;;;;;5114614;27;20046;-57
2023/07/24 09:05:48;;;;;;;18.55;8.35;;;19.20;99.90;;;;;;5115955;28;20110;-58
2023/07/24 09:08:14;;;;;;;19.67;8.40;;;19.30;99.90;;;;;;5115712;28;20036;-57
2023/07/24 09:10:40;;;;;;;13.73;7.47;;;19.50;99.90;;;;;;5115495;28;20040;-58
2023/07/24 09:13:07;;;;;;;15.75;8.20;;;19.60;99.90;;;;;;5115504;28;20397;-58
2023/07/24 09:15:44;;;;;;;17.50;8.57;;;19.60;99.90;;;;;;5115456;28;20096;-57
2023/07/24 09:18:10;;;;;;;18.13;8.02;;;19.70;99.90;;;;;;5115299;28;20080;-57
2023/07/24 09:20:41;;;;;;;16.00;8.48;;;19.60;99.90;;;;;;5114852;28;20031;-57
2023/07/24 09:23:08;;;;;;;14.35;8.27;;;19.50;99.90;;;;;;5115213;28;20051;-57
2023/07/24 09:25:36;;;;;;;20.38;8.05;;;19.50;99.90;;;;;;5115523;28;20070;-57
2023/07/24 09:28:12;;;;;;;20.00;9.02;;;19.50;99.90;;;;;;5115739;28;20396;-57
2023/07/24 09:30:39;;;;;;;18.75;8.82;;;19.50;99.90;;;;;;5115616;28;20112;-57
2023/07/24 09:33:05;;;;;;;16.83;8.20;;;19.60;99.90;;;;;;5115079;28;20386;-56
2023/07/24 09:35:32;;;;;;;12.98;7.45;;;19.70;99.90;;;;;;5115538;28;20040;-58
2023/07/24 09:38:11;;;;;;;23.40;9.18;;;19.90;99.90;;;;;;5115120;28;20409;-58
2023/07/24 09:40:45;;;;;;;16.10;6.93;;;19.90;99.90;;;;;;5115369;28;20114;-57
2023/07/24 09:43:24;;;;;;;16.02;7.18;;;20.00;99.90;;;;;;5114948;27;20489;-56
2023/07/24 09:45:51;;;;;;;15.50;7.05;;;20.20;99.90;;;;;;5089202;28;20127;-57
2023/07/24 09:48:18;;;;;;;14.20;7.13;;;20.30;99.90;;;;;;5115141;27;20115;-58
2023/07/24 09:50:49;;;;;;;13.85;7.47;;;20.40;99.90;;;;;;5114965;28;20103;-57
2023/07/24 09:53:31;;;;;;;11.45;6.97;;;20.50;99.90;;;;;;5114878;28;20035;-57
2023/07/24 09:56:00;;;;;;;13.05;6.55;;;20.70;99.90;;;;;;5114687;28;20084;-58
2023/07/24 09:58:26;;;;;;;17.02;6.35;;;20.90;99.90;;;;;;5114593;28;20102;-59
2023/07/24 10:00:53;;;;;;;12.82;6.78;;;21.20;99.90;;;;;;5114692;28;20044;-57
2023/07/24 10:03:20;;;;;;;11.73;6.25;;;21.50;99.90;;;;;;5114645;28;20424;-58
2023/07/24 10:05:46;;;;;;;18.42;7.22;;;21.60;99.90;;;;;;5115151;28;20034;-57
2023/07/24 10:08:16;;;;;;;18.58;8.02;;;21.70;99.90;;;;;;5114663;28;20074;-58
2023/07/24 10:10:42;;;;;;;12.38;7.35;;;21.60;99.90;;;;;;5114287;28;20038;-58
2023/07/24 10:13:10;;;;;;;10.95;7.72;;;21.60;99.90;;;;;;5114489;28;20028;-58
2023/07/24 10:15:37;;;;;;;13.07;7.60;;;21.40;99.90;;;;;;5114655;28;20466;-59
2023/07/24 10:18:07;;;;;;;14.20;7.40;;;21.30;99.90;;;;;;5114502;28;20035;-57
2023/07/24 10:20:42;;;;;;;17.20;8.23;;;21.30;99.90;;;;;;5114330;28;20044;-58
2023/07/24 10:23:16;;;;;;;11.18;8.80;;;21.20;99.90;;;;;;5114053;28;20450;-57
2023/07/24 10:25:44;;;;;;;12.13;8.05;;;21.10;99.90;;;;;;5114138;28;20164;-58
2023/07/24 10:28:12;;;;;;;12.13;7.28;;;21.30;99.90;;;;;;5113943;28;20050;-58
2023/07/24 10:30:38;;;;;;;15.35;8.13;;;21.60;99.90;;;;;;5113886;28;20035;-57
2023/07/24 10:33:17;;;;;;;10.95;7.05;;;22.00;99.90;;;;;;5113210;28;20043;-57
2023/07/24 10:35:54;;;;;;;12.40;6.70;;;22.20;99.90;;;;;;5090918;28;20550;-57
2023/07/24 10:38:31;;;;;;;11.38;6.43;;;22.00;99.90;;;;;;5113908;28;20044;-58
2023/07/24 10:41:03;;;;;;;8.52;6.07;;;21.90;99.90;;;;;;5113732;28;20042;-58
2023/07/24 10:43:29;;;;;;;11.80;5.88;;;21.80;99.90;;;;;;5113766;28;20042;-57
2023/07/24 10:45:55;;;;;;;11.48;6.22;;;22.00;99.90;;;;;;5113729;28;20509;-58
2023/07/24 10:48:24;;;;;;;10.25;6.03;;;22.30;99.90;;;;;;5113954;28;20049;-58
2023/07/24 10:50:50;;;;;;;11.90;6.13;;;22.70;99.90;;;;;;5113677;27;20035;-58
2023/07/24 10:53:21;;;;;;;13.23;5.68;;;22.60;99.90;;;;;;5113474;28;20481;-58
2023/07/24 10:55:47;;;;;;;10.65;5.68;;;22.60;99.90;;;;;;5113606;28;20032;-58
2023/07/24 10:58:14;;;;;;;8.38;5.22;;;22.40;99.90;;;;;;5112296;27;20040;-57
2023/07/24 11:00:43;;;;;;;7.70;4.97;;;22.30;99.90;;;;;;5113102;28;20481;-58
2023/07/24 11:03:10;;;;;;;17.98;4.88;;;21.90;99.90;;;;;;5113075;28;20530;-58
2023/07/24 11:05:43;;;;;;;6.30;4.68;;;21.70;99.90;;;;;;5113292;28;20482;-57
2023/07/24 11:08:16;;;;;;;10.27;5.00;;;21.50;99.90;;;;;;5112835;28;20500;-57
2023/07/24 11:11:01;;;;;;;13.25;6.03;;;21.30;99.90;;;;;;5113300;28;20039;-57
2023/07/24 11:13:28;;;;;;;8.85;5.85;;;21.20;99.90;;;;;;5113025;28;20347;-58
2023/07/24 11:15:55;;;;;;;8.32;4.68;;;21.10;99.90;;;;;;5112996;28;20027;-58
2023/07/24 11:18:22;;;;;;;7.63;4.97;;;21.10;99.90;;;;;;5112633;28;20038;-58
2023/07/24 11:20:55;;;;;;;10.02;5.97;;;20.90;99.90;;;;;;5113076;28;20044;-57
2023/07/24 11:23:22;;;;;;;13.70;5.90;;;20.80;99.90;;;;;;5112972;28;20053;-58
2023/07/24 11:25:51;;;;;;;9.20;5.68;;;20.50;99.90;;;;;;5113121;27;20485;-58
2023/07/24 11:28:17;;;;;;;15.18;6.82;;;20.40;99.90;;;;;;5113053;28;20063;-57
2023/07/24 11:30:43;;;;;;;12.13;5.00;;;20.40;99.90;;;;;;5112912;28;20520;-58
2023/07/24 11:33:12;;;;;;;9.27;6.93;;;20.40;99.90;;;;;;5111940;28;20428;-57
2023/07/24 11:35:40;;;;;;;9.82;6.30;;;20.40;99.90;;;;;;5112932;28;20036;-57
2023/07/24 11:38:07;;;;;;;7.20;6.00;;;20.40;99.90;;;;;;5113046;28;20031;-56
2023/07/24 11:40:44;;;;;;;8.57;6.60;;;20.40;99.90;;;;;;5111276;28;20047;-57
2023/07/24 11:43:21;;;;;;;10.25;6.68;;;20.60;99.90;;;;;;5112571;28;20485;-58
2023/07/24 11:45:53;;;;;;;8.85;5.88;;;20.80;99.90;;;;;;5112488;28;20035;-57
2023/07/24 11:48:24;;;;;;;9.98;6.90;;;21.10;99.90;;;;;;5111809;28;20035;-57
2023/07/24 11:50:56;;;;;;;9.07;5.97;;;21.30;99.90;;;;;;5112295;28;20497;-56
2023/07/24 11:53:28;;;;;;;10.75;6.30;;;21.50;99.90;;;;;;5112358;28;20499;-57
2023/07/24 11:55:59;;;;;;;13.32;6.75;;;21.60;99.90;;;;;;5112899;28;20071;-58
2023/07/24 11:58:31;;;;;;;6.97;5.57;;;21.50;99.90;;;;;;5112472;28;20106;-57
2023/07/24 12:00:57;;;;;;;8.65;5.45;;;21.70;99.90;;;;;;5112224;28;20036;-57
2023/07/24 12:03:25;;;;;;;10.80;5.20;;;21.60;99.90;;;;;;5112617;28;20031;-57
2023/07/24 12:05:51;;;;;;;8.25;5.00;;;21.70;99.90;;;;;;5112412;28;20044;-57
2023/07/24 12:08:19;;;;;;;5.53;4.63;;;21.70;99.90;;;;;;5112443;28;20077;-57
2023/07/24 12:10:45;;;;;;;8.88;5.57;;;21.60;99.90;;;;;;5112254;28;20102;-58
2023/07/24 12:13:11;;;;;;;8.43;5.40;;;21.50;99.90;;;;;;5112352;28;20445;-58
2023/07/24 12:15:37;;;;;;;12.00;5.45;;;21.40;99.90;;;;;;5112126;28;20042;-58
2023/07/24 12:18:04;;;;;;;10.90;5.38;;;21.30;99.90;;;;;;5112571;28;20088;-57
2023/07/24 12:20:30;;;;;;;9.48;5.63;;;21.40;99.90;;;;;;5112301;28;20032;-58
2023/07/24 12:22:56;;;;;;;12.82;5.20;;;21.10;99.90;;;;;;5111963;28;20051;-57
2023/07/24 12:25:22;;;;;;;7.97;3.60;;;20.80;99.90;;;;;;5112131;28;20039;-58
2023/07/24 12:27:48;;;;;;;14.75;5.97;;;20.40;99.90;;;;;;5111181;28;20116;-57
2023/07/24 12:30:14;;;;;;;12.02;6.53;;;20.10;99.90;;;;;;5112305;28;20046;-58
2023/07/24 12:32:40;;;;;;;11.82;7.18;;;19.90;99.90;;;;;;5112950;28;20389;-58
2023/07/24 12:35:08;;;;;;;13.30;7.90;;;19.80;99.90;;;;;;5112518;28;20039;-58
2023/07/24 12:37:33;;;;;;;11.13;6.97;;;19.80;99.90;;;;;;5112827;28;20031;-58